Time;durP1;ratioP1;P1;durP2;ratioP2;P2;SDS_P1;SDS_P2;PMS_P1;PMS_P2;Temp;Humidity;BMP_temperature;BMP_pressure;BME280_temperature;BME280_humidity;BME280_pressure;Samples;Min_cycle;Max_cycle;Signal;HPM_P1;HPM_P2
2022/07/02 00:00:36;;;;;;;2.65;2.45;;;;;;;23.71;100.00;99687.72;6272216;22;20155;-77
2022/07/02 00:03:04;;;;;;;5.88;3.70;;;;;;;23.68;100.00;99689.00;6245652;22;20068;-76
2022/07/02 00:05:31;;;;;;;3.95;3.15;;;;;;;23.63;100.00;99688.84;6271768;22;20311;-76
2022/07/02 00:07:58;;;;;;;3.97;3.13;;;;;;;23.61;100.00;99689.09;6272037;22;20015;-76
2022/07/02 00:10:24;;;;;;;5.05;3.25;;;;;;;23.57;100.00;99695.13;6272343;22;20340;-76
2022/07/02 00:12:50;;;;;;;4.13;3.20;;;;;;;23.52;100.00;99686.88;6245207;22;20082;-77
2022/07/02 00:15:17;;;;;;;4.15;2.80;;;;;;;23.48;100.00;99688.38;6272643;22;20065;-74
2022/07/02 00:17:44;;;;;;;3.10;2.80;;;;;;;23.47;100.00;99697.50;6272404;22;20329;-78
2022/07/02 00:20:10;;;;;;;5.97;3.30;;;;;;;23.46;100.00;99698.53;6272010;22;20333;-78
2022/07/02 00:22:37;;;;;;;4.63;3.08;;;;;;;23.40;100.00;99699.41;6271056;22;20099;-78
2022/07/02 00:25:03;;;;;;;3.33;2.75;;;;;;;23.31;100.00;99703.44;6272431;22;20046;-77
2022/07/02 00:27:31;;;;;;;4.38;2.95;;;;;;;23.28;100.00;99708.22;6272074;22;20011;-78
2022/07/02 00:30:00;;;;;;;5.82;3.10;;;;;;;23.21;100.00;99703.94;6272324;22;19999;-77
2022/07/02 00:32:34;;;;;;;3.10;2.88;;;;;;;23.17;100.00;99711.63;6272161;22;20814;-78
2022/07/02 00:35:11;;;;;;;3.85;2.92;;;;;;;23.16;100.00;99715.38;6272505;22;20011;-77
2022/07/02 00:37:37;;;;;;;5.68;2.88;;;;;;;23.16;100.00;99725.31;6271105;22;20015;-77
2022/07/02 00:40:06;;;;;;;3.63;2.72;;;;;;;23.14;100.00;99722.88;6272197;22;20337;-77
2022/07/02 00:42:31;;;;;;;3.17;2.85;;;;;;;23.14;100.00;99722.88;6271690;22;20061;-78
2022/07/02 00:44:58;;;;;;;4.38;3.33;;;;;;;23.14;100.00;99722.88;6272767;22;20015;-77
2022/07/02 00:47:25;;;;;;;4.90;3.30;;;;;;;23.12;100.00;99727.63;6272549;22;20421;-77
2022/07/02 00:49:51;;;;;;;5.70;3.15;;;;;;;23.11;100.00;99717.91;6272508;22;20329;-77
2022/07/02 00:52:17;;;;;;;3.17;2.95;;;;;;;23.09;100.00;99719.97;6271633;22;20012;-77
2022/07/02 00:54:42;;;;;;;5.63;2.92;;;;;;;23.08;100.00;99718.34;6271950;22;20018;-77
2022/07/02 00:57:08;;;;;;;4.22;3.13;;;;;;;23.08;100.00;99720.22;6272359;22;20011;-77
2022/07/02 00:59:35;;;;;;;3.63;3.13;;;;;;;23.08;100.00;99718.34;6271868;22;20035;-78
2022/07/02 01:02:01;;;;;;;5.22;3.72;;;;;;;23.06;100.00;99725.00;6272412;22;20004;-78
2022/07/02 01:04:29;;;;;;;9.68;3.83;;;;;;;23.05;100.00;99729.53;6272169;22;20094;-77
2022/07/02 01:07:02;;;;;;;5.07;3.40;;;;;;;23.04;100.00;99730.59;6271711;22;20083;-77
2022/07/02 01:12:15;;;;;;;8.00;3.47;;;;;;;22.97;100.00;99737.91;6272311;22;20393;-77
2022/07/02 01:14:41;;;;;;;4.13;3.40;;;;;;;22.91;100.00;99744.16;6271948;22;20605;-77
2022/07/02 01:17:06;;;;;;;5.35;3.58;;;;;;;22.90;100.00;99739.81;6272362;22;20149;-76
2022/07/02 01:19:33;;;;;;;6.10;3.35;;;;;;;22.78;100.00;99744.25;6271982;22;20010;-77
2022/07/02 01:22:25;;;;;;;3.60;3.30;;;;;;;22.68;100.00;99743.88;6271571;22;20069;-76
2022/07/02 01:24:53;;;;;;;4.53;3.85;;;;;;;22.58;100.00;99740.81;6265203;22;20022;-74
2022/07/02 01:27:21;;;;;;;5.20;3.70;;;;;;;22.45;100.00;99739.84;6272173;22;20313;-75
2022/07/02 01:29:47;;;;;;;5.78;3.83;;;;;;;22.41;100.00;99735.94;6272167;22;20407;-77
2022/07/02 01:32:14;;;;;;;4.07;3.60;;;;;;;22.40;100.00;99742.34;6272128;22;20320;-77
2022/07/02 01:34:41;;;;;;;5.05;3.97;;;;;;;22.28;100.00;99738.69;6273635;22;20023;-76
2022/07/02 01:37:09;;;;;;;4.70;4.03;;;;;;;22.21;100.00;99743.25;6246859;22;20368;-76
2022/07/02 01:39:36;;;;;;;4.93;4.22;;;;;;;22.13;100.00;99738.13;6273116;22;20003;-76
2022/07/02 01:42:03;;;;;;;6.18;4.10;;;;;;;22.00;100.00;99741.69;6246754;22;20012;-77
2022/07/02 01:44:28;;;;;;;4.53;4.13;;;;;;;21.93;100.00;99738.16;6273374;22;20368;-77
2022/07/02 01:46:54;;;;;;;6.65;4.70;;;;;;;21.91;100.00;99736.75;6274269;22;20031;-77
2022/07/02 01:49:19;;;;;;;5.82;4.18;;;;;;;21.99;100.00;99733.84;6274228;22;20087;-77
2022/07/02 01:51:45;;;;;;;5.60;3.88;;;;;;;21.96;100.00;99739.66;6246407;22;20007;-77
2022/07/02 01:54:11;;;;;;;4.50;3.88;;;;;;;21.95;100.00;99746.06;6274090;22;20061;-75
2022/07/02 01:56:37;;;;;;;7.35;4.05;;;;;;;21.94;100.00;99750.56;6273205;22;20003;-77
2022/07/02 01:59:03;;;;;;;4.22;3.92;;;;;;;21.94;100.00;99739.00;6273809;22;20010;-76
2022/07/02 02:01:29;;;;;;;4.00;3.70;;;;;;;21.90;100.00;99741.28;6274012;22;20332;-77
2022/07/02 02:03:55;;;;;;;5.15;4.65;;;;;;;21.92;100.00;99743.75;6274462;22;20012;-76
2022/07/02 02:06:21;;;;;;;3.80;3.50;;;;;;;21.95;100.00;99743.38;6273322;22;20091;-76
2022/07/02 02:08:47;;;;;;;5.95;3.95;;;;;;;21.96;100.00;99750.41;6273930;22;20014;-76
2022/07/02 02:11:13;;;;;;;4.88;4.05;;;;;;;21.96;100.00;99750.41;6274095;22;20320;-77
2022/07/02 02:13:39;;;;;;;4.57;3.67;;;;;;;21.97;100.00;99752.06;6273400;22;20015;-76
2022/07/02 02:16:04;;;;;;;4.20;3.83;;;;;;;21.98;100.00;99748.31;6247106;22;19996;-76
2022/07/02 02:18:30;;;;;;;5.57;3.90;;;;;;;21.97;100.00;99746.69;6273924;22;20015;-76
2022/07/02 02:20:55;;;;;;;5.68;3.97;;;;;;;21.94;100.00;99752.44;6274023;22;20012;-75
2022/07/02 02:23:21;;;;;;;4.25;3.50;;;;;;;21.95;100.00;99744.19;6246325;22;20011;-76
2022/07/02 02:25:47;;;;;;;4.38;3.72;;;;;;;21.94;100.00;99742.50;6273976;22;20012;-76
2022/07/02 02:28:12;;;;;;;5.25;3.63;;;;;;;21.94;100.00;99741.69;6273636;22;20012;-76
2022/07/02 02:30:38;;;;;;;8.27;4.72;;;;;;;21.94;100.00;99730.94;6273273;22;20011;-76
2022/07/02 02:33:04;;;;;;;4.70;3.58;;;;;;;21.93;100.00;99737.34;6274047;22;20006;-77
2022/07/02 02:35:29;;;;;;;4.55;3.53;;;;;;;21.89;100.00;99728.06;6273351;22;20035;-75
2022/07/02 02:37:55;;;;;;;5.20;4.05;;;;;;;21.86;100.00;99739.22;6273634;22;20011;-77
2022/07/02 02:40:20;;;;;;;5.40;3.30;;;;;;;21.82;100.00;99738.00;6274015;22;20015;-75
2022/07/02 02:42:46;;;;;;;3.78;3.38;;;;;;;21.81;100.00;99737.16;6246186;22;20015;-76
2022/07/02 02:45:12;;;;;;;3.90;3.58;;;;;;;21.81;100.00;99747.91;6273690;22;20432;-75
2022/07/02 02:47:37;;;;;;;5.30;3.60;;;;;;;21.82;100.00;99754.13;6273828;22;20011;-76
2022/07/02 02:50:04;;;;;;;4.85;3.80;;;;;;;21.78;100.00;99761.78;6273730;22;19999;-78
2022/07/02 02:52:30;;;;;;;3.78;3.47;;;;;;;21.71;100.00;99768.19;6273167;22;20375;-76
2022/07/02 02:54:55;;;;;;;4.43;3.40;;;;;;;21.65;100.00;99770.69;6273408;22;20069;-77
2022/07/02 02:57:21;;;;;;;5.55;3.60;;;;;;;21.68;100.00;99763.25;6272586;22;20008;-77
2022/07/02 02:59:47;;;;;;;6.75;3.85;;;;;;;21.73;100.00;99771.50;6245802;22;20113;-75
2022/07/02 03:02:13;;;;;;;3.83;3.53;;;;;;;21.76;100.00;99781.81;6273064;22;20011;-77
2022/07/02 03:04:38;;;;;;;5.85;3.88;;;;;;;21.71;100.00;99778.94;6272656;22;20022;-76
2022/07/02 03:07:04;;;;;;;6.63;3.88;;;;;;;21.67;100.00;99777.72;6272396;22;20018;-76
2022/07/02 03:09:30;;;;;;;4.78;4.28;;;;;;;21.55;100.00;99781.03;6272815;22;20336;-77
2022/07/02 03:11:55;;;;;;;4.50;4.07;;;;;;;21.42;100.00;99781.03;6272920;22;20043;-76
2022/07/02 03:14:21;;;;;;;5.50;4.30;;;;;;;21.38;100.00;99774.44;6272084;22;20008;-77
2022/07/02 03:16:46;;;;;;;4.00;3.53;;;;;;;21.40;100.00;99788.47;6272428;22;20741;-77
2022/07/02 03:19:12;;;;;;;6.18;4.60;;;;;;;21.43;100.00;99790.75;6246111;22;20004;-77
2022/07/02 03:21:38;;;;;;;4.80;4.40;;;;;;;21.44;100.00;99800.44;6244716;22;20043;-76
2022/07/02 03:24:04;;;;;;;6.20;4.82;;;;;;;21.43;100.00;99806.84;6272807;22;20008;-76
2022/07/02 03:26:29;;;;;;;4.72;4.25;;;;;;;21.32;100.00;99796.75;6272578;22;20003;-76
2022/07/02 03:28:55;;;;;;;5.28;4.78;;;;;;;21.24;100.00;99797.75;6272546;22;20099;-76
2022/07/02 03:31:20;;;;;;;7.72;4.93;;;;;;;21.18;100.00;99795.06;6272369;22;20004;-76
2022/07/02 03:33:46;;;;;;;5.30;4.40;;;;;;;21.12;100.00;99802.06;6272453;22;20042;-77
2022/07/02 03:36:12;;;;;;;6.30;4.75;;;;;;;21.11;100.00;99804.94;6272424;22;19999;-75
2022/07/02 03:38:38;;;;;;;5.03;4.63;;;;;;;21.06;100.00;99813.59;6272119;22;20011;-77
2022/07/02 03:41:06;;;;;;;5.25;4.55;;;;;;;21.09;100.00;99813.19;6272734;22;20031;-76
2022/07/02 03:43:32;;;;;;;5.93;4.95;;;;;;;21.02;100.00;99822.28;6272332;22;20014;-76
2022/07/02 03:45:58;;;;;;;4.82;3.83;;;;;;;21.03;100.00;99823.94;6272285;22;20003;-76
2022/07/02 03:48:24;;;;;;;5.75;4.80;;;;;;;21.05;100.00;99824.53;6271984;22;20099;-77
2022/07/02 03:50:50;;;;;;;5.30;4.80;;;;;;;21.09;100.00;99828.44;6271766;22;20019;-75
2022/07/02 03:53:15;;;;;;;12.80;6.45;;;;;;;21.10;100.00;99835.47;6272195;22;20012;-76
2022/07/02 03:55:41;;;;;;;6.43;5.28;;;;;;;21.13;100.00;99840.44;6272258;22;20008;-76
2022/07/02 03:58:06;;;;;;;5.95;5.15;;;;;;;21.08;100.00;99848.28;6272633;22;20007;-77
2022/07/02 04:00:32;;;;;;;8.13;5.40;;;;;;;21.06;100.00;99851.16;6271944;22;20003;-76
2022/07/02 04:02:58;;;;;;;6.20;5.10;;;;;;;21.10;100.00;99851.56;6272221;22;20058;-77
2022/07/02 04:05:23;;;;;;;9.00;6.18;;;;;;;21.08;100.00;99853.66;6272157;22;20010;-76
2022/07/02 04:07:49;;;;;;;6.65;5.47;;;;;;;20.99;100.00;99860.22;6272157;22;20011;-76
2022/07/02 04:10:15;;;;;;;6.25;5.65;;;;;;;20.89;100.00;99859.78;6272616;22;20111;-76
2022/07/02 04:12:40;;;;;;;7.03;4.97;;;;;;;20.91;100.00;99857.75;6271891;22;20054;-76
2022/07/02 04:15:06;;;;;;;7.78;5.45;;;;;;;21.00;100.00;99853.81;6272259;22;20087;-77
2022/07/02 04:17:32;;;;;;;6.57;6.00;;;;;;;21.02;100.00;99851.78;6271502;22;20011;-77
2022/07/02 04:19:58;;;;;;;5.97;5.22;;;;;;;21.08;100.00;99856.34;6272145;22;20012;-77
2022/07/02 04:22:23;;;;;;;8.82;6.18;;;;;;;21.11;100.00;99858.59;6271368;22;20017;-78
2022/07/02 04:24:49;;;;;;;6.88;5.75;;;;;;;21.09;100.00;99866.00;6272228;22;20035;-76
2022/07/02 04:27:14;;;;;;;5.50;5.00;;;;;;;21.15;100.00;99860.69;6272083;22;20451;-77
2022/07/02 04:29:41;;;;;;;7.50;5.78;;;;;;;21.21;100.00;99859.06;6271907;22;20034;-77
2022/07/02 04:32:07;;;;;;;9.50;6.82;;;;;;;21.21;100.00;99864.41;6271809;22;20462;-76
2022/07/02 04:34:33;;;;;;;6.18;5.65;;;;;;;21.23;100.00;99867.72;6271817;22;20011;-76
2022/07/02 04:36:58;;;;;;;6.68;6.07;;;;;;;21.29;100.00;99872.28;6271579;22;20008;-76
2022/07/02 04:39:25;;;;;;;6.43;5.82;;;;;;;21.37;100.00;99873.97;6271777;22;20054;-76
2022/07/02 04:41:51;;;;;;;6.88;6.38;;;;;;;21.37;100.00;99887.38;6271928;22;20448;-76
2022/07/02 04:44:16;;;;;;;7.20;6.53;;;;;;;21.42;100.00;99883.06;6271843;22;19996;-76
2022/07/02 04:46:42;;;;;;;6.97;6.43;;;;;;;21.50;100.00;99885.53;6271882;22;20011;-77
2022/07/02 04:49:08;;;;;;;8.60;6.90;;;;;;;21.57;100.00;99894.41;6271857;22;20011;-76
2022/07/02 04:51:33;;;;;;;7.57;6.88;;;;;;;21.63;100.00;99890.91;6271301;22;20063;-77
2022/07/02 04:53:59;;;;;;;7.68;6.40;;;;;;;21.72;100.00;99904.97;6271902;22;20029;-75
2022/07/02 04:56:27;;;;;;;7.25;6.53;;;;;;;21.79;100.00;99900.44;6271870;22;20090;-76
2022/07/02 04:58:53;;;;;;;7.28;6.15;;;;;;;21.87;100.00;99907.44;6271756;22;20012;-78
2022/07/02 05:01:19;;;;;;;8.38;5.55;;;;;;;21.93;100.00;99906.59;6272263;22;20065;-76
2022/07/02 05:03:44;;;;;;;6.72;5.45;;;;;;;21.95;100.00;99915.34;6243973;22;20003;-76
2022/07/02 05:06:10;;;;;;;7.47;5.88;;;;;;;21.97;100.00;99918.66;6271605;22;20089;-76
2022/07/02 05:08:36;;;;;;;6.20;5.70;;;;;;;22.00;100.00;99913.66;6270800;22;20035;-77
2022/07/02 05:11:01;;;;;;;6.35;5.80;;;;;;;22.02;100.00;99911.63;6272005;22;20042;-76
2022/07/02 05:13:27;;;;;;;6.65;5.93;;;;;;;22.00;100.00;99918.22;6244424;22;20094;-76
2022/07/02 05:15:53;;;;;;;7.53;6.18;;;;;;;22.02;100.00;99910.78;6271993;22;20003;-75
2022/07/02 05:18:18;;;;;;;7.88;6.05;;;;;;;22.03;100.00;99909.75;6271283;22;20003;-76
2022/07/02 05:20:44;;;;;;;7.03;6.13;;;;;;;22.11;100.00;99909.53;6271189;22;20046;-76
2022/07/02 05:23:10;;;;;;;6.63;5.95;;;;;;;22.19;100.00;99916.56;6271384;22;20014;-76
2022/07/02 05:25:36;;;;;;;7.07;5.97;;;;;;;22.26;100.00;99917.38;6244227;22;20011;-76
2022/07/02 05:28:02;;;;;;;6.72;6.10;;;;;;;22.31;100.00;99917.56;6271527;22;20004;-76
2022/07/02 05:30:27;;;;;;;9.18;6.00;;;;;;;22.37;100.00;99925.63;6272472;22;20016;-77
2022/07/02 05:32:53;;;;;;;6.00;5.43;;;;;;;22.42;100.00;99915.06;6274896;22;19999;-77
2022/07/02 05:35:19;;;;;;;6.10;5.50;;;;;;;22.41;100.00;99924.16;6273609;22;20020;-77
2022/07/02 05:37:44;;;;;;;7.82;5.25;;;;;;;22.43;100.00;99924.78;6272870;22;20007;-77
2022/07/02 05:40:11;;;;;;;7.25;5.80;;;;;;;22.44;100.00;99920.22;6274592;22;20007;-77
2022/07/02 05:42:36;;;;;;;5.63;5.00;;;;;;;22.44;100.00;99921.03;6272724;22;20522;-77
2022/07/02 05:45:02;;;;;;;7.03;5.18;;;;;;;22.48;100.00;99926.00;6272239;22;20008;-76
2022/07/02 05:47:28;;;;;;;5.70;4.82;;;;;;;22.51;100.00;99920.19;6271583;22;20440;-76
2022/07/02 05:49:55;;;;;;;5.72;5.18;;;;;;;22.55;100.00;99922.28;6271562;22;20095;-76
2022/07/02 05:52:21;;;;;;;6.90;5.00;;;;;;;22.64;100.00;99931.75;6270737;22;20281;-76
2022/07/02 05:54:46;;;;;;;5.63;5.18;;;;;;;22.72;100.00;99930.72;6271381;22;20065;-77
2022/07/02 05:57:12;;;;;;;5.35;4.72;;;;;;;22.80;100.00;99925.09;6271723;22;20012;-76
2022/07/02 05:59:38;;;;;;;7.35;5.18;;;;;;;22.88;100.00;99941.00;6244003;22;20010;-77
2022/07/02 06:02:04;;;;;;;5.47;4.97;;;;;;;22.86;100.00;99948.47;6272087;22;20011;-77
2022/07/02 06:04:31;;;;;;;5.07;4.63;;;;;;;22.89;100.00;99950.75;6245506;22;20004;-75
2022/07/02 06:09:45;;;;;;;5.75;4.82;;;;;;;23.06;100.00;99954.59;6271931;22;20337;-74
2022/07/02 06:12:10;;;;;;;10.57;4.75;;;;;;;23.12;100.00;99961.81;6271461;22;20062;-74
2022/07/02 06:14:36;;;;;;;4.97;4.53;;;;;;;23.20;100.00;99958.91;6271483;22;20015;-79
2022/07/02 06:17:01;;;;;;;6.40;5.63;;;;;;;23.23;100.00;99955.75;6271834;22;20010;-74
2022/07/02 06:19:27;;;;;;;7.45;4.35;;;;;;;23.25;100.00;99951.00;6245108;22;20008;-79
2022/07/02 06:21:53;;;;;;;4.65;4.22;;;;;;;23.32;100.00;99956.34;6272806;22;20012;-76
2022/07/02 06:24:18;;;;;;;4.60;4.30;;;;;;;23.36;100.00;99957.56;6273385;22;20023;-76
2022/07/02 06:26:44;;;;;;;4.95;4.55;;;;;;;23.43;100.00;99958.34;6273524;22;20008;-77
2022/07/02 06:29:10;;;;;;;6.90;4.20;;;;;;;23.54;100.00;99957.69;6277066;22;20007;-81
2022/07/02 06:31:36;;;;;;;4.70;4.30;;;;;;;23.67;100.00;99954.09;6277936;22;20008;-75
2022/07/02 06:34:05;;;;;;;4.65;4.22;;;;;;;23.74;100.00;99944.06;6273955;22;20007;-77
2022/07/02 06:36:31;;;;;;;4.30;3.58;;;;;;;23.85;100.00;99951.47;6246030;22;20015;-77
2022/07/02 06:38:56;;;;;;;6.35;3.65;;;;;;;23.96;100.00;99958.84;6273576;22;20317;-76
2022/07/02 06:44:07;;;;;;;5.38;3.42;;;;;;;24.11;100.00;99965.75;6273844;22;20457;-77
2022/07/02 06:46:34;;;;;;;5.20;3.58;;;;;;;24.21;100.00;99976.91;6273960;22;20134;-78
2022/07/02 06:49:00;;;;;;;3.47;3.10;;;;;;;24.26;100.00;99974.38;6273853;22;20042;-76
2022/07/02 06:51:26;;;;;;;8.38;2.92;;;;;;;24.34;100.00;99971.38;6272838;22;20048;-77
2022/07/02 06:53:55;;;;;;;4.47;3.05;;;;;;;24.36;95.64;99972.81;6273531;22;20030;-76
2022/07/02 06:56:20;;;;;;;3.13;2.92;;;;;;;24.37;95.08;99968.25;6273314;22;20325;-78
2022/07/02 06:58:46;;;;;;;4.07;3.10;;;;;;;24.38;94.94;99972.63;6246212;22;20022;-77
2022/07/02 07:01:11;;;;;;;5.10;2.75;;;;;;;24.45;95.92;99973.34;6273836;22;20019;-77
2022/07/02 07:03:37;;;;;;;5.32;2.75;;;;;;;24.53;95.57;99981.16;6273194;22;20015;-77
2022/07/02 07:06:03;;;;;;;3.65;3.20;;;;;;;24.63;96.70;99976.06;6274116;22;20471;-76
2022/07/02 07:08:28;;;;;;;4.07;2.90;;;;;;;24.70;95.80;99978.69;6272405;22;20012;-76
2022/07/02 07:10:54;;;;;;;4.78;2.83;;;;;;;24.77;95.86;99985.69;6273462;22;20000;-78
2022/07/02 07:13:20;;;;;;;2.85;2.60;;;;;;;24.81;93.57;99980.66;6273453;22;20686;-76
2022/07/02 07:15:45;;;;;;;3.45;3.10;;;;;;;24.84;91.77;99985.63;6272660;22;20015;-76
2022/07/02 07:18:11;;;;;;;5.30;3.10;;;;;;;24.88;90.91;99994.91;6273362;22;20062;-76
2022/07/02 07:20:37;;;;;;;4.10;2.60;;;;;;;24.94;91.08;99995.91;6272935;22;20432;-77
2022/07/02 07:23:02;;;;;;;3.15;2.92;;;;;;;25.00;90.83;99995.00;6272842;22;20015;-77
2022/07/02 07:25:28;;;;;;;3.80;2.50;;;;;;;25.06;89.59;99996.81;6271844;22;20022;-77
2022/07/02 07:27:54;;;;;;;6.00;3.75;;;;;;;25.11;90.86;99994.25;6272561;22;20039;-77
2022/07/02 07:30:19;;;;;;;4.35;3.05;;;;;;;25.13;89.25;99997.56;6272366;22;20019;-77
2022/07/02 07:32:45;;;;;;;3.25;2.80;;;;;;;25.16;90.76;99994.38;6245156;22;20021;-77
2022/07/02 07:35:11;;;;;;;5.22;3.08;;;;;;;25.21;90.39;100005.38;6273084;22;20008;-77
2022/07/02 07:37:36;;;;;;;3.70;2.97;;;;;;;25.28;86.00;100006.06;6272074;22;20003;-77
2022/07/02 07:40:04;;;;;;;4.18;2.80;;;;;;;25.28;85.52;100017.72;6272422;22;20329;-77
2022/07/02 07:42:30;;;;;;;3.03;2.75;;;;;;;25.35;81.17;100023.03;6245097;22;20301;-77
2022/07/02 07:44:56;;;;;;;2.95;2.72;;;;;;;25.31;83.49;100015.63;6272638;22;20014;-77
2022/07/02 07:47:21;;;;;;;5.07;3.40;;;;;;;25.30;87.53;100020.19;6272786;22;20014;-78
2022/07/02 07:49:47;;;;;;;5.35;3.92;;;;;;;25.35;88.87;100014.09;6272115;22;20089;-77
2022/07/02 07:52:13;;;;;;;5.82;3.60;;;;;;;25.37;88.53;100010.13;6272549;22;20018;-77
2022/07/02 07:54:38;;;;;;;4.88;3.47;;;;;;;25.43;89.93;100016.50;6271775;22;20080;-76
2022/07/02 07:57:05;;;;;;;3.20;2.95;;;;;;;25.48;89.41;100008.53;6272418;22;20000;-76
2022/07/02 07:59:30;;;;;;;8.63;3.38;;;;;;;25.54;89.74;100005.75;6271903;22;19999;-75
2022/07/02 08:01:56;;;;;;;6.03;3.45;;;;;;;25.58;89.26;100004.25;6272807;22;20018;-76
2022/07/02 08:04:22;;;;;;;3.83;3.28;;;;;;;25.63;88.98;100001.69;6272525;22;20000;-77
2022/07/02 08:06:48;;;;;;;4.35;3.13;;;;;;;25.69;89.87;99995.34;6272366;22;20011;-77
2022/07/02 08:09:13;;;;;;;5.10;3.33;;;;;;;25.73;88.16;99995.75;6272802;22;20003;-77
2022/07/02 08:11:39;;;;;;;3.83;3.53;;;;;;;25.79;86.54;99997.53;6271702;22;20428;-77
2022/07/02 08:14:04;;;;;;;3.50;3.20;;;;;;;25.84;86.90;99994.94;6272309;22;20012;-78
2022/07/02 08:16:31;;;;;;;3.67;3.20;;;;;;;25.92;86.05;99989.19;6244899;22;20416;-77
2022/07/02 08:18:57;;;;;;;3.50;3.20;;;;;;;26.01;84.88;99989.69;6272228;22;20008;-77
2022/07/02 08:21:23;;;;;;;3.05;2.70;;;;;;;26.07;81.90;99989.56;6272280;22;20014;-77
2022/07/02 08:23:49;;;;;;;3.47;3.17;;;;;;;26.12;81.89;99983.47;6272374;22;20007;-77
2022/07/02 08:26:15;;;;;;;5.90;3.10;;;;;;;26.16;82.30;99987.34;6272640;22;20015;-75
2022/07/02 08:28:41;;;;;;;3.25;2.92;;;;;;;26.23;81.67;99984.53;6271554;22;20004;-77
2022/07/02 08:31:06;;;;;;;6.20;3.03;;;;;;;26.28;82.09;99980.09;6272577;22;20018;-77
2022/07/02 08:33:32;;;;;;;2.80;2.60;;;;;;;26.34;82.30;99979.16;6272271;22;20018;-78
2022/07/02 08:35:58;;;;;;;3.25;2.67;;;;;;;26.39;81.37;99976.56;6272069;22;20468;-77
2022/07/02 08:38:23;;;;;;;3.63;2.90;;;;;;;26.43;80.16;99977.75;6271635;22;20053;-75
2022/07/02 08:40:49;;;;;;;4.57;2.53;;;;;;;26.53;76.75;99981.75;6272439;22;20027;-76
2022/07/02 08:43:16;;;;;;;3.60;3.30;;;;;;;26.60;77.11;99977.03;6271162;22;20015;-78
2022/07/02 08:45:43;;;;;;;3.45;2.78;;;;;;;26.60;75.86;99983.28;6271907;22;20019;-79
2022/07/02 08:48:10;;;;;;;4.38;2.80;;;;;;;26.58;76.05;99979.97;6272392;22;20432;-77
2022/07/02 08:50:36;;;;;;;3.97;2.55;;;;;;;26.55;76.55;99979.63;6244956;22;20105;-77
2022/07/02 08:53:05;;;;;;;4.63;2.72;;;;;;;26.61;76.00;99989.50;6272237;22;20376;-77
2022/07/02 08:55:33;;;;;;;3.50;2.50;;;;;;;26.68;74.15;99985.63;6272208;22;19999;-77
2022/07/02 08:57:59;;;;;;;3.58;2.85;;;;;;;26.77;76.03;99984.19;6271963;22;20056;-75
2022/07/02 09:00:26;;;;;;;7.15;2.47;;;;;;;26.87;71.86;99983.56;6271750;22;20012;-77
2022/07/02 09:02:53;;;;;;;4.03;2.42;;;;;;;26.96;70.17;99990.31;6272216;22;20376;-76
2022/07/02 09:05:24;;;;;;;2.47;2.28;;;;;;;27.06;68.85;99986.97;6272264;22;20309;-78
2022/07/02 09:07:50;;;;;;;6.28;3.20;;;;;;;27.13;69.02;99987.69;6272358;22;20043;-77
2022/07/02 09:10:19;;;;;;;6.28;2.60;;;;;;;27.26;69.15;99982.81;6220152;22;20371;-77
2022/07/02 09:12:47;;;;;;;2.33;2.13;;;;;;;27.35;68.23;99990.53;6271964;22;20015;-77
2022/07/02 09:15:14;;;;;;;3.42;2.85;;;;;;;27.46;67.47;99986.97;6244966;22;20019;-76
2022/07/02 09:17:44;;;;;;;4.40;2.65;;;;;;;27.52;65.94;99992.28;6271810;22;20015;-76
2022/07/02 09:20:11;;;;;;;3.22;2.85;;;;;;;27.52;65.62;99986.03;6272130;22;20087;-76
2022/07/02 09:22:41;;;;;;;6.30;2.55;;;;;;;27.53;66.50;99980.38;6271556;22;20083;-77
2022/07/02 09:25:08;;;;;;;2.90;2.30;;;;;;;27.56;64.37;99984.50;6272874;22;20622;-77
2022/07/02 09:27:34;;;;;;;4.05;2.83;;;;;;;27.60;64.34;99988.34;6271847;22;20012;-77
2022/07/02 09:29:59;;;;;;;4.80;2.72;;;;;;;27.60;64.55;99982.94;6272169;22;20012;-77
2022/07/02 09:32:25;;;;;;;4.82;2.65;;;;;;;27.57;66.07;99988.81;6271777;22;20078;-77
2022/07/02 09:34:52;;;;;;;4.70;2.47;;;;;;;27.61;66.06;99990.00;6272493;22;20018;-77
2022/07/02 09:37:23;;;;;;;6.13;2.67;;;;;;;27.68;64.99;99993.38;6271564;22;20339;-76
2022/07/02 09:39:51;;;;;;;4.35;2.83;;;;;;;27.81;66.12;99993.06;6271706;22;20317;-77
2022/07/02 09:42:47;;;;;;;4.32;2.60;;;;;;;27.87;65.90;99989.38;6272226;22;20368;-78
2022/07/02 09:45:13;;;;;;;2.65;2.45;;;;;;;27.93;65.90;99999.25;6269251;22;20038;-77
2022/07/02 09:47:44;;;;;;;3.35;2.67;;;;;;;28.01;65.57;99990.72;6271356;22;20433;-77
2022/07/02 09:50:11;;;;;;;3.20;2.63;;;;;;;28.07;64.73;99987.00;6272100;22;20384;-77
2022/07/02 09:52:50;;;;;;;2.85;2.42;;;;;;;28.08;64.86;99988.66;6271414;22;20398;-77
2022/07/02 09:55:32;;;;;;;3.63;2.53;;;;;;;28.15;65.17;99985.81;6273807;22;20016;-76
2022/07/02 09:58:00;;;;;;;3.92;2.75;;;;;;;28.17;63.25;99990.97;6274030;22;20000;-76
2022/07/02 10:00:28;;;;;;;4.88;2.63;;;;;;;28.17;63.55;99988.25;6273632;22;20424;-76
2022/07/02 10:02:55;;;;;;;2.95;2.72;;;;;;;28.21;63.47;99989.44;6273989;22;20340;-76
2022/07/02 10:05:31;;;;;;;5.38;2.80;;;;;;;28.21;62.77;99990.25;6274107;22;20308;-76
2022/07/02 10:07:58;;;;;;;3.85;2.78;;;;;;;28.20;62.56;99991.31;6274221;22;20316;-77
2022/07/02 10:10:34;;;;;;;4.82;2.97;;;;;;;28.23;64.45;99987.28;6274198;22;20390;-78
2022/07/02 10:13:00;;;;;;;2.75;2.55;;;;;;;28.28;63.13;99979.22;6273957;22;20063;-77
2022/07/02 10:15:32;;;;;;;2.70;2.22;;;;;;;28.39;63.55;99981.03;6274218;22;20008;-76
2022/07/02 10:18:00;;;;;;;3.75;2.63;;;;;;;28.42;62.60;99975.09;6273862;22;20019;-77
2022/07/02 10:20:29;;;;;;;4.95;2.83;;;;;;;28.51;61.64;99977.13;6273511;22;20376;-78
2022/07/02 10:22:58;;;;;;;3.25;3.03;;;;;;;28.57;61.60;99967.16;6273515;22;20349;-77
2022/07/02 10:25:24;;;;;;;4.07;2.58;;;;;;;28.68;61.90;99963.53;6273643;22;20015;-77
2022/07/02 10:27:51;;;;;;;3.20;2.53;;;;;;;28.73;59.39;99960.91;6273325;22;20011;-77
2022/07/02 10:30:38;;;;;;;2.78;2.38;;;;;;;28.69;60.73;99962.44;6273355;22;20456;-78
2022/07/02 10:33:18;;;;;;;4.57;2.88;;;;;;;28.70;60.87;99946.97;6272472;22;20046;-77
2022/07/02 10:35:47;;;;;;;2.67;2.47;;;;;;;28.79;61.18;99954.47;6245269;22;20114;-78
2022/07/02 10:38:13;;;;;;;5.28;2.53;;;;;;;28.97;60.77;99949.81;6272413;22;20086;-76
2022/07/02 10:40:49;;;;;;;4.15;2.45;;;;;;;29.14;59.64;99953.25;6272852;22;20420;-77
2022/07/02 10:43:18;;;;;;;4.50;2.42;;;;;;;29.18;58.27;99940.81;6272703;22;20078;-77
2022/07/02 10:45:45;;;;;;;5.88;2.80;;;;;;;29.18;57.51;99941.63;6272732;22;20042;-76
2022/07/02 10:48:12;;;;;;;5.60;3.10;;;;;;;29.10;59.14;99938.56;6272499;22;20012;-75
2022/07/02 10:50:46;;;;;;;2.60;2.40;;;;;;;29.00;59.54;99930.25;6271800;22;20012;-76
2022/07/02 10:53:22;;;;;;;4.75;2.75;;;;;;;29.01;59.37;99929.19;6272547;22;20056;-77
2022/07/02 10:55:50;;;;;;;3.42;2.72;;;;;;;29.08;59.07;99927.09;6272952;22;20759;-76
2022/07/02 10:58:25;;;;;;;4.30;2.88;;;;;;;29.25;58.15;99925.13;6272870;22;20019;-77
2022/07/02 11:00:51;;;;;;;4.50;2.67;;;;;;;29.33;57.44;99932.88;6272997;22;20110;-76
2022/07/02 11:03:25;;;;;;;3.85;2.55;;;;;;;29.35;56.87;99935.31;6272610;22;20011;-77
2022/07/02 11:05:55;;;;;;;6.78;3.22;;;;;;;29.35;57.35;99925.25;6272045;22;20018;-77
2022/07/02 11:08:50;;;;;;;5.90;2.53;;;;;;;29.42;57.45;99920.44;6272299;22;20007;-78
2022/07/02 11:11:19;;;;;;;5.63;3.00;;;;;;;29.45;58.73;99919.94;6259892;22;20066;-77
2022/07/02 11:13:48;;;;;;;2.97;2.65;;;;;;;29.52;57.87;99931.41;6272140;22;20008;-78
2022/07/02 11:16:25;;;;;;;6.25;2.88;;;;;;;29.56;56.81;99924.38;6272762;22;19999;-77
2022/07/02 11:18:52;;;;;;;6.30;3.20;;;;;;;29.53;57.40;99922.16;6272503;22;20008;-78
2022/07/02 11:21:20;;;;;;;3.53;2.45;;;;;;;29.51;57.42;99927.03;6271803;22;20010;-78
2022/07/02 11:23:46;;;;;;;3.45;2.55;;;;;;;29.58;56.14;99927.66;6271822;22;20043;-77
2022/07/02 11:26:29;;;;;;;5.20;3.10;;;;;;;29.71;55.55;99932.66;6272589;22;20004;-77
2022/07/02 11:29:00;;;;;;;3.25;2.90;;;;;;;29.74;56.26;99923.19;6272845;22;20016;-76
2022/07/02 11:31:26;;;;;;;4.38;3.00;;;;;;;29.76;56.01;99931.06;6272380;22;20474;-77
2022/07/02 11:33:54;;;;;;;4.57;2.60;;;;;;;29.86;56.15;99920.28;6272526;22;20016;-77
2022/07/02 11:36:20;;;;;;;5.75;2.35;;;;;;;29.94;56.61;99922.53;6271972;22;20115;-77